sensor_id;sensor_type;location;lat;lon;timestamp;P1;durP1;ratioP1;P2;durP2;ratioP2
80625;SDS011;69982;51.758;5.784;2023-06-01T00:01:24;12.70;;;5.20;;
80625;SDS011;69982;51.758;5.784;2023-06-01T00:03:51;12.10;;;5.40;;
80625;SDS011;69982;51.758;5.784;2023-06-01T00:06:20;12.10;;;5.30;;
80625;SDS011;69982;51.758;5.784;2023-06-01T00:08:48;11.20;;;4.70;;
80625;SDS011;69982;51.758;5.784;2023-06-01T00:11:16;9.30;;;4.60;;
80625;SDS011;69982;51.758;5.784;2023-06-01T00:13:43;9.50;;;4.60;;
80625;SDS011;69982;51.758;5.784;2023-06-01T00:16:13;13.10;;;4.80;;
80625;SDS011;69982;51.758;5.784;2023-06-01T00:18:41;10.70;;;5.00;;
80625;SDS011;69982;51.758;5.784;2023-06-01T00:21:09;9.80;;;4.90;;
80625;SDS011;69982;51.758;5.784;2023-06-01T00:23:37;11.40;;;4.90;;
80625;SDS011;69982;51.758;5.784;2023-06-01T00:26:08;14.40;;;5.40;;
80625;SDS011;69982;51.758;5.784;2023-06-01T00:28:36;10.80;;;5.20;;
80625;SDS011;69982;51.758;5.784;2023-06-01T00:31:03;12.80;;;5.60;;
80625;SDS011;69982;51.758;5.784;2023-06-01T00:33:31;12.10;;;5.50;;
80625;SDS011;69982;51.758;5.784;2023-06-01T00:35:59;10.80;;;5.30;;
80625;SDS011;69982;51.758;5.784;2023-06-01T00:38:27;12.00;;;5.20;;
80625;SDS011;69982;51.758;5.784;2023-06-01T00:40:55;10.20;;;5.20;;
80625;SDS011;69982;51.758;5.784;2023-06-01T00:43:22;11.10;;;5.00;;
80625;SDS011;69982;51.758;5.784;2023-06-01T00:45:50;13.00;;;4.60;;
80625;SDS011;69982;51.758;5.784;2023-06-01T00:48:18;16.40;;;5.70;;
80625;SDS011;69982;51.758;5.784;2023-06-01T00:50:46;10.60;;;4.80;;
80625;SDS011;69982;51.758;5.784;2023-06-01T00:53:18;10.90;;;5.10;;
80625;SDS011;69982;51.758;5.784;2023-06-01T00:55:47;10.30;;;4.90;;
80625;SDS011;69982;51.758;5.784;2023-06-01T00:58:15;14.20;;;4.90;;
80625;SDS011;69982;51.758;5.784;2023-06-01T01:00:43;11.70;;;4.70;;
80625;SDS011;69982;51.758;5.784;2023-06-01T01:03:11;10.00;;;5.30;;
80625;SDS011;69982;51.758;5.784;2023-06-01T01:05:41;12.60;;;5.70;;
80625;SDS011;69982;51.758;5.784;2023-06-01T01:08:13;12.80;;;5.60;;
80625;SDS011;69982;51.758;5.784;2023-06-01T01:10:55;13.60;;;6.00;;
80625;SDS011;69982;51.758;5.784;2023-06-01T01:13:37;14.00;;;6.10;;
80625;SDS011;69982;51.758;5.784;2023-06-01T01:16:14;14.10;;;6.50;;
80625;SDS011;69982;51.758;5.784;2023-06-01T01:21:29;13.30;;;6.30;;
80625;SDS011;69982;51.758;5.784;2023-06-01T01:30:16;15.10;;;6.80;;
80625;SDS011;69982;51.758;5.784;2023-06-01T01:32:48;12.60;;;6.00;;
80625;SDS011;69982;51.758;5.784;2023-06-01T01:35:18;13.30;;;6.90;;
80625;SDS011;69982;51.758;5.784;2023-06-01T01:37:53;14.00;;;6.60;;
80625;SDS011;69982;51.758;5.784;2023-06-01T01:40:24;11.70;;;6.70;;
80625;SDS011;69982;51.758;5.784;2023-06-01T01:42:52;14.60;;;6.90;;
80625;SDS011;69982;51.758;5.784;2023-06-01T01:45:23;15.00;;;6.30;;
80625;SDS011;69982;51.758;5.784;2023-06-01T01:48:11;12.70;;;6.90;;
80625;SDS011;69982;51.758;5.784;2023-06-01T01:51:01;13.20;;;6.50;;
80625;SDS011;69982;51.758;5.784;2023-06-01T01:53:35;15.10;;;7.30;;
80625;SDS011;69982;51.758;5.784;2023-06-01T01:56:06;11.20;;;6.70;;
80625;SDS011;69982;51.758;5.784;2023-06-01T01:58:35;14.80;;;6.90;;
80625;SDS011;69982;51.758;5.784;2023-06-01T02:01:04;16.00;;;7.60;;
80625;SDS011;69982;51.758;5.784;2023-06-01T02:05:59;11.80;;;6.40;;
80625;SDS011;69982;51.758;5.784;2023-06-01T02:08:27;14.40;;;7.40;;
80625;SDS011;69982;51.758;5.784;2023-06-01T02:10:55;14.40;;;8.00;;
80625;SDS011;69982;51.758;5.784;2023-06-01T02:13:23;15.30;;;7.40;;
80625;SDS011;69982;51.758;5.784;2023-06-01T02:15:51;12.30;;;6.90;;
80625;SDS011;69982;51.758;5.784;2023-06-01T02:18:18;12.50;;;6.20;;
80625;SDS011;69982;51.758;5.784;2023-06-01T02:20:47;14.90;;;6.70;;
80625;SDS011;69982;51.758;5.784;2023-06-01T02:23:14;17.00;;;6.60;;
80625;SDS011;69982;51.758;5.784;2023-06-01T02:25:42;15.30;;;6.50;;
80625;SDS011;69982;51.758;5.784;2023-06-01T02:28:10;12.30;;;6.20;;
80625;SDS011;69982;51.758;5.784;2023-06-01T02:30:38;12.80;;;6.50;;
80625;SDS011;69982;51.758;5.784;2023-06-01T02:33:05;16.20;;;6.50;;
80625;SDS011;69982;51.758;5.784;2023-06-01T02:35:33;11.60;;;6.00;;
80625;SDS011;69982;51.758;5.784;2023-06-01T02:38:01;14.70;;;6.40;;
80625;SDS011;69982;51.758;5.784;2023-06-01T02:40:29;13.40;;;6.00;;
80625;SDS011;69982;51.758;5.784;2023-06-01T02:42:56;14.10;;;6.90;;
80625;SDS011;69982;51.758;5.784;2023-06-01T02:45:24;12.50;;;6.40;;
80625;SDS011;69982;51.758;5.784;2023-06-01T02:47:52;13.50;;;7.00;;
80625;SDS011;69982;51.758;5.784;2023-06-01T02:50:21;12.90;;;5.70;;
80625;SDS011;69982;51.758;5.784;2023-06-01T02:52:48;14.10;;;6.10;;
80625;SDS011;69982;51.758;5.784;2023-06-01T02:55:16;12.40;;;6.00;;
80625;SDS011;69982;51.758;5.784;2023-06-01T02:57:44;12.00;;;6.20;;
80625;SDS011;69982;51.758;5.784;2023-06-01T03:02:46;12.90;;;5.30;;
80625;SDS011;69982;51.758;5.784;2023-06-01T03:07:42;14.70;;;5.90;;
80625;SDS011;69982;51.758;5.784;2023-06-01T03:10:11;14.20;;;5.90;;
80625;SDS011;69982;51.758;5.784;2023-06-01T03:12:40;12.90;;;6.10;;
80625;SDS011;69982;51.758;5.784;2023-06-01T03:15:08;13.90;;;6.80;;
80625;SDS011;69982;51.758;5.784;2023-06-01T03:17:36;11.40;;;6.40;;
80625;SDS011;69982;51.758;5.784;2023-06-01T03:20:04;15.40;;;6.40;;
80625;SDS011;69982;51.758;5.784;2023-06-01T03:22:42;12.30;;;6.40;;
80625;SDS011;69982;51.758;5.784;2023-06-01T03:25:11;14.10;;;6.30;;
80625;SDS011;69982;51.758;5.784;2023-06-01T03:27:40;15.40;;;6.70;;
80625;SDS011;69982;51.758;5.784;2023-06-01T03:30:08;11.80;;;6.20;;
80625;SDS011;69982;51.758;5.784;2023-06-01T03:32:40;14.40;;;6.10;;
80625;SDS011;69982;51.758;5.784;2023-06-01T03:35:10;14.50;;;5.70;;
80625;SDS011;69982;51.758;5.784;2023-06-01T03:37:42;13.30;;;6.00;;
80625;SDS011;69982;51.758;5.784;2023-06-01T03:40:11;13.40;;;5.80;;
80625;SDS011;69982;51.758;5.784;2023-06-01T03:42:42;11.80;;;6.20;;
80625;SDS011;69982;51.758;5.784;2023-06-01T03:45:13;15.80;;;6.70;;
80625;SDS011;69982;51.758;5.784;2023-06-01T03:47:43;12.00;;;6.60;;
80625;SDS011;69982;51.758;5.784;2023-06-01T03:50:11;14.30;;;6.70;;
80625;SDS011;69982;51.758;5.784;2023-06-01T03:55:07;18.70;;;7.00;;
80625;SDS011;69982;51.758;5.784;2023-06-01T03:57:37;13.40;;;6.40;;
80625;SDS011;69982;51.758;5.784;2023-06-01T04:05:18;11.20;;;5.80;;
80625;SDS011;69982;51.758;5.784;2023-06-01T04:07:47;13.90;;;6.00;;
80625;SDS011;69982;51.758;5.784;2023-06-01T04:10:16;13.20;;;6.60;;
80625;SDS011;69982;51.758;5.784;2023-06-01T04:12:45;13.90;;;6.50;;
80625;SDS011;69982;51.758;5.784;2023-06-01T04:15:15;11.80;;;6.30;;
80625;SDS011;69982;51.758;5.784;2023-06-01T04:17:43;13.60;;;5.90;;
80625;SDS011;69982;51.758;5.784;2023-06-01T04:20:12;11.40;;;6.10;;
80625;SDS011;69982;51.758;5.784;2023-06-01T04:22:41;14.10;;;6.90;;
80625;SDS011;69982;51.758;5.784;2023-06-01T04:25:10;13.10;;;5.70;;
80625;SDS011;69982;51.758;5.784;2023-06-01T04:27:43;13.00;;;5.90;;
80625;SDS011;69982;51.758;5.784;2023-06-01T04:30:13;15.30;;;6.20;;
80625;SDS011;69982;51.758;5.784;2023-06-01T04:32:43;11.30;;;6.30;;
80625;SDS011;69982;51.758;5.784;2023-06-01T04:35:15;14.10;;;6.20;;
80625;SDS011;69982;51.758;5.784;2023-06-01T04:37:43;14.80;;;6.00;;
80625;SDS011;69982;51.758;5.784;2023-06-01T04:40:12;13.70;;;5.50;;
80625;SDS011;69982;51.758;5.784;2023-06-01T04:42:41;11.30;;;5.50;;
80625;SDS011;69982;51.758;5.784;2023-06-01T04:45:10;13.30;;;7.00;;
80625;SDS011;69982;51.758;5.784;2023-06-01T04:47:39;12.30;;;5.70;;
80625;SDS011;69982;51.758;5.784;2023-06-01T04:50:07;12.70;;;5.60;;
80625;SDS011;69982;51.758;5.784;2023-06-01T04:52:40;12.50;;;5.80;;
80625;SDS011;69982;51.758;5.784;2023-06-01T04:55:09;12.90;;;5.20;;
80625;SDS011;69982;51.758;5.784;2023-06-01T04:57:38;11.20;;;5.40;;
80625;SDS011;69982;51.758;5.784;2023-06-01T05:00:14;12.70;;;5.60;;
80625;SDS011;69982;51.758;5.784;2023-06-01T05:02:45;14.80;;;6.80;;
80625;SDS011;69982;51.758;5.784;2023-06-01T05:05:15;13.10;;;5.40;;
80625;SDS011;69982;51.758;5.784;2023-06-01T05:07:43;12.00;;;5.60;;
80625;SDS011;69982;51.758;5.784;2023-06-01T05:10:12;12.20;;;5.30;;
80625;SDS011;69982;51.758;5.784;2023-06-01T05:15:09;15.80;;;5.10;;
80625;SDS011;69982;51.758;5.784;2023-06-01T05:17:39;10.90;;;5.70;;
80625;SDS011;69982;51.758;5.784;2023-06-01T05:20:08;14.10;;;5.10;;
80625;SDS011;69982;51.758;5.784;2023-06-01T05:22:38;13.50;;;5.30;;
80625;SDS011;69982;51.758;5.784;2023-06-01T05:25:06;10.90;;;4.80;;
80625;SDS011;69982;51.758;5.784;2023-06-01T05:27:35;12.30;;;5.20;;
80625;SDS011;69982;51.758;5.784;2023-06-01T05:30:02;13.30;;;5.30;;
80625;SDS011;69982;51.758;5.784;2023-06-01T05:32:31;12.50;;;5.30;;
80625;SDS011;69982;51.758;5.784;2023-06-01T05:34:59;11.80;;;4.70;;
80625;SDS011;69982;51.758;5.784;2023-06-01T05:37:26;12.30;;;5.30;;
80625;SDS011;69982;51.758;5.784;2023-06-01T05:39:54;9.70;;;5.30;;
80625;SDS011;69982;51.758;5.784;2023-06-01T05:42:23;10.50;;;5.40;;
80625;SDS011;69982;51.758;5.784;2023-06-01T05:47:19;12.60;;;4.70;;
80625;SDS011;69982;51.758;5.784;2023-06-01T05:49:47;11.70;;;5.10;;
80625;SDS011;69982;51.758;5.784;2023-06-01T05:52:15;14.20;;;4.70;;
80625;SDS011;69982;51.758;5.784;2023-06-01T05:54:43;11.80;;;5.30;;
80625;SDS011;69982;51.758;5.784;2023-06-01T05:57:11;11.90;;;4.90;;
80625;SDS011;69982;51.758;5.784;2023-06-01T05:59:39;11.10;;;4.70;;
80625;SDS011;69982;51.758;5.784;2023-06-01T06:02:06;10.90;;;4.90;;
80625;SDS011;69982;51.758;5.784;2023-06-01T06:04:34;11.00;;;4.60;;
80625;SDS011;69982;51.758;5.784;2023-06-01T06:07:02;13.00;;;5.00;;
80625;SDS011;69982;51.758;5.784;2023-06-01T06:09:30;10.50;;;5.30;;
80625;SDS011;69982;51.758;5.784;2023-06-01T06:14:26;12.00;;;4.90;;
80625;SDS011;69982;51.758;5.784;2023-06-01T06:16:54;16.10;;;5.10;;
80625;SDS011;69982;51.758;5.784;2023-06-01T06:19:23;12.60;;;5.30;;
80625;SDS011;69982;51.758;5.784;2023-06-01T06:24:19;13.30;;;4.50;;
80625;SDS011;69982;51.758;5.784;2023-06-01T06:26:47;13.30;;;5.50;;
80625;SDS011;69982;51.758;5.784;2023-06-01T06:29:15;13.40;;;5.00;;
80625;SDS011;69982;51.758;5.784;2023-06-01T06:31:44;12.60;;;5.10;;
80625;SDS011;69982;51.758;5.784;2023-06-01T06:34:12;10.30;;;5.00;;
80625;SDS011;69982;51.758;5.784;2023-06-01T06:36:40;18.00;;;5.30;;
80625;SDS011;69982;51.758;5.784;2023-06-01T06:39:07;16.20;;;5.40;;
80625;SDS011;69982;51.758;5.784;2023-06-01T06:41:35;13.20;;;5.00;;
80625;SDS011;69982;51.758;5.784;2023-06-01T06:44:03;11.90;;;4.40;;
80625;SDS011;69982;51.758;5.784;2023-06-01T06:46:31;10.90;;;5.40;;
80625;SDS011;69982;51.758;5.784;2023-06-01T06:48:59;9.90;;;5.30;;
80625;SDS011;69982;51.758;5.784;2023-06-01T06:51:27;10.80;;;5.10;;
80625;SDS011;69982;51.758;5.784;2023-06-01T06:53:55;15.60;;;5.10;;
80625;SDS011;69982;51.758;5.784;2023-06-01T06:56:23;12.10;;;5.40;;
80625;SDS011;69982;51.758;5.784;2023-06-01T06:58:51;14.50;;;4.90;;
80625;SDS011;69982;51.758;5.784;2023-06-01T07:01:26;12.10;;;5.10;;
80625;SDS011;69982;51.758;5.784;2023-06-01T07:03:55;12.10;;;5.10;;
80625;SDS011;69982;51.758;5.784;2023-06-01T07:06:24;14.50;;;5.10;;
80625;SDS011;69982;51.758;5.784;2023-06-01T07:08:51;14.20;;;5.30;;
80625;SDS011;69982;51.758;5.784;2023-06-01T07:11:20;11.60;;;5.20;;
80625;SDS011;69982;51.758;5.784;2023-06-01T07:13:48;12.00;;;5.30;;
80625;SDS011;69982;51.758;5.784;2023-06-01T07:16:16;10.60;;;4.60;;
80625;SDS011;69982;51.758;5.784;2023-06-01T07:18:44;17.10;;;5.30;;
80625;SDS011;69982;51.758;5.784;2023-06-01T07:21:11;13.50;;;5.40;;
80625;SDS011;69982;51.758;5.784;2023-06-01T07:23:41;11.30;;;4.90;;
80625;SDS011;69982;51.758;5.784;2023-06-01T07:26:10;11.10;;;5.20;;
80625;SDS011;69982;51.758;5.784;2023-06-01T07:28:38;11.60;;;4.70;;
80625;SDS011;69982;51.758;5.784;2023-06-01T07:31:06;11.00;;;4.70;;
80625;SDS011;69982;51.758;5.784;2023-06-01T07:33:34;10.40;;;4.70;;
80625;SDS011;69982;51.758;5.784;2023-06-01T07:36:06;14.90;;;4.50;;
80625;SDS011;69982;51.758;5.784;2023-06-01T07:38:34;12.80;;;5.00;;
80625;SDS011;69982;51.758;5.784;2023-06-01T07:41:02;11.20;;;5.00;;
80625;SDS011;69982;51.758;5.784;2023-06-01T07:43:30;14.40;;;5.00;;
80625;SDS011;69982;51.758;5.784;2023-06-01T07:45:57;11.50;;;5.20;;
80625;SDS011;69982;51.758;5.784;2023-06-01T07:48:25;15.00;;;5.40;;
80625;SDS011;69982;51.758;5.784;2023-06-01T07:50:53;14.60;;;5.70;;
80625;SDS011;69982;51.758;5.784;2023-06-01T07:53:21;13.80;;;5.80;;
80625;SDS011;69982;51.758;5.784;2023-06-01T07:55:50;11.60;;;5.40;;
80625;SDS011;69982;51.758;5.784;2023-06-01T07:58:19;12.00;;;4.90;;
80625;SDS011;69982;51.758;5.784;2023-06-01T08:00:47;11.90;;;4.90;;
80625;SDS011;69982;51.758;5.784;2023-06-01T08:03:16;14.70;;;5.30;;
80625;SDS011;69982;51.758;5.784;2023-06-01T08:05:45;11.70;;;5.10;;
80625;SDS011;69982;51.758;5.784;2023-06-01T08:08:12;10.70;;;5.10;;
80625;SDS011;69982;51.758;5.784;2023-06-01T08:10:42;13.10;;;5.30;;
80625;SDS011;69982;51.758;5.784;2023-06-01T08:13:09;11.00;;;5.20;;
80625;SDS011;69982;51.758;5.784;2023-06-01T08:15:37;14.00;;;5.30;;
80625;SDS011;69982;51.758;5.784;2023-06-01T08:18:06;14.30;;;5.30;;
80625;SDS011;69982;51.758;5.784;2023-06-01T08:20:34;14.30;;;4.50;;
80625;SDS011;69982;51.758;5.784;2023-06-01T08:23:03;18.40;;;5.60;;
80625;SDS011;69982;51.758;5.784;2023-06-01T08:25:31;11.00;;;5.00;;
80625;SDS011;69982;51.758;5.784;2023-06-01T08:27:59;11.90;;;4.90;;
80625;SDS011;69982;51.758;5.784;2023-06-01T08:30:29;14.30;;;5.00;;
80625;SDS011;69982;51.758;5.784;2023-06-01T08:32:58;14.50;;;5.20;;
80625;SDS011;69982;51.758;5.784;2023-06-01T08:35:26;9.10;;;4.80;;
80625;SDS011;69982;51.758;5.784;2023-06-01T08:37:54;11.60;;;4.20;;
80625;SDS011;69982;51.758;5.784;2023-06-01T08:40:22;12.00;;;5.00;;
80625;SDS011;69982;51.758;5.784;2023-06-01T08:42:55;14.80;;;5.30;;
80625;SDS011;69982;51.758;5.784;2023-06-01T08:45:25;11.30;;;5.40;;
80625;SDS011;69982;51.758;5.784;2023-06-01T08:47:54;13.50;;;5.10;;
80625;SDS011;69982;51.758;5.784;2023-06-01T08:50:23;9.60;;;4.50;;
80625;SDS011;69982;51.758;5.784;2023-06-01T08:52:52;11.40;;;4.60;;
80625;SDS011;69982;51.758;5.784;2023-06-01T08:55:23;11.30;;;4.70;;
80625;SDS011;69982;51.758;5.784;2023-06-01T08:57:52;13.40;;;5.00;;
80625;SDS011;69982;51.758;5.784;2023-06-01T09:00:22;12.90;;;5.10;;
80625;SDS011;69982;51.758;5.784;2023-06-01T09:02:51;11.80;;;4.50;;
80625;SDS011;69982;51.758;5.784;2023-06-01T09:05:20;12.30;;;4.70;;
80625;SDS011;69982;51.758;5.784;2023-06-01T09:10:20;12.80;;;4.70;;
80625;SDS011;69982;51.758;5.784;2023-06-01T09:12:54;11.50;;;4.90;;
80625;SDS011;69982;51.758;5.784;2023-06-01T09:15:23;13.10;;;4.00;;
80625;SDS011;69982;51.758;5.784;2023-06-01T09:18:03;11.40;;;4.70;;
80625;SDS011;69982;51.758;5.784;2023-06-01T09:20:33;10.60;;;4.10;;
80625;SDS011;69982;51.758;5.784;2023-06-01T09:23:01;13.60;;;5.10;;
80625;SDS011;69982;51.758;5.784;2023-06-01T09:25:29;9.30;;;4.70;;
80625;SDS011;69982;51.758;5.784;2023-06-01T09:27:59;10.70;;;4.40;;
80625;SDS011;69982;51.758;5.784;2023-06-01T09:30:39;15.40;;;5.00;;
80625;SDS011;69982;51.758;5.784;2023-06-01T09:35:44;11.60;;;5.30;;
80625;SDS011;69982;51.758;5.784;2023-06-01T09:38:26;11.80;;;4.20;;
80625;SDS011;69982;51.758;5.784;2023-06-01T09:41:00;10.90;;;5.20;;
80625;SDS011;69982;51.758;5.784;2023-06-01T09:43:33;9.20;;;4.60;;
80625;SDS011;69982;51.758;5.784;2023-06-01T09:46:05;14.60;;;4.90;;
80625;SDS011;69982;51.758;5.784;2023-06-01T09:48:34;12.80;;;5.50;;
80625;SDS011;69982;51.758;5.784;2023-06-01T09:51:02;13.30;;;5.80;;
80625;SDS011;69982;51.758;5.784;2023-06-01T09:53:39;13.60;;;5.70;;
80625;SDS011;69982;51.758;5.784;2023-06-01T09:56:08;8.80;;;5.10;;
80625;SDS011;69982;51.758;5.784;2023-06-01T09:58:35;13.10;;;5.30;;
80625;SDS011;69982;51.758;5.784;2023-06-01T10:01:07;13.60;;;5.70;;
80625;SDS011;69982;51.758;5.784;2023-06-01T10:03:38;12.50;;;5.20;;
80625;SDS011;69982;51.758;5.784;2023-06-01T10:06:12;9.50;;;4.00;;
80625;SDS011;69982;51.758;5.784;2023-06-01T10:08:42;15.60;;;5.20;;
80625;SDS011;69982;51.758;5.784;2023-06-01T10:11:10;13.20;;;6.10;;
80625;SDS011;69982;51.758;5.784;2023-06-01T10:13:39;11.80;;;5.30;;
80625;SDS011;69982;51.758;5.784;2023-06-01T10:16:07;13.00;;;5.10;;
80625;SDS011;69982;51.758;5.784;2023-06-01T10:18:36;11.20;;;4.30;;
80625;SDS011;69982;51.758;5.784;2023-06-01T10:21:04;12.60;;;4.60;;
80625;SDS011;69982;51.758;5.784;2023-06-01T10:23:34;11.10;;;4.20;;
80625;SDS011;69982;51.758;5.784;2023-06-01T10:26:07;10.90;;;3.60;;
80625;SDS011;69982;51.758;5.784;2023-06-01T10:28:40;13.30;;;4.10;;
80625;SDS011;69982;51.758;5.784;2023-06-01T10:34:00;10.40;;;4.20;;
80625;SDS011;69982;51.758;5.784;2023-06-01T10:39:22;8.90;;;4.10;;
80625;SDS011;69982;51.758;5.784;2023-06-01T10:41:58;10.20;;;3.80;;
80625;SDS011;69982;51.758;5.784;2023-06-01T10:44:47;11.00;;;4.60;;
80625;SDS011;69982;51.758;5.784;2023-06-01T10:52:31;8.70;;;4.10;;
80625;SDS011;69982;51.758;5.784;2023-06-01T10:57:38;7.90;;;3.80;;
80625;SDS011;69982;51.758;5.784;2023-06-01T11:00:20;10.30;;;3.40;;
80625;SDS011;69982;51.758;5.784;2023-06-01T11:05:38;10.50;;;3.80;;
80625;SDS011;69982;51.758;5.784;2023-06-01T11:08:07;11.20;;;4.00;;
80625;SDS011;69982;51.758;5.784;2023-06-01T11:13:20;9.30;;;3.80;;
80625;SDS011;69982;51.758;5.784;2023-06-01T11:21:15;7.30;;;3.30;;
80625;SDS011;69982;51.758;5.784;2023-06-01T11:23:45;9.70;;;3.10;;
80625;SDS011;69982;51.758;5.784;2023-06-01T11:26:13;8.20;;;3.60;;
80625;SDS011;69982;51.758;5.784;2023-06-01T11:28:44;12.00;;;3.20;;
80625;SDS011;69982;51.758;5.784;2023-06-01T11:31:13;9.20;;;3.20;;
80625;SDS011;69982;51.758;5.784;2023-06-01T11:33:48;9.40;;;3.30;;
80625;SDS011;69982;51.758;5.784;2023-06-01T11:36:20;8.50;;;3.60;;
80625;SDS011;69982;51.758;5.784;2023-06-01T11:38:51;8.30;;;2.80;;
80625;SDS011;69982;51.758;5.784;2023-06-01T11:41:20;10.70;;;3.10;;
80625;SDS011;69982;51.758;5.784;2023-06-01T11:43:58;10.00;;;2.90;;
80625;SDS011;69982;51.758;5.784;2023-06-01T11:46:26;9.70;;;3.00;;
80625;SDS011;69982;51.758;5.784;2023-06-01T11:49:01;8.20;;;2.80;;
80625;SDS011;69982;51.758;5.784;2023-06-01T11:51:40;10.10;;;3.40;;
80625;SDS011;69982;51.758;5.784;2023-06-01T11:54:10;8.60;;;3.20;;
80625;SDS011;69982;51.758;5.784;2023-06-01T11:56:38;11.70;;;3.10;;
80625;SDS011;69982;51.758;5.784;2023-06-01T11:59:10;8.00;;;3.60;;
80625;SDS011;69982;51.758;5.784;2023-06-01T12:01:42;9.40;;;3.30;;
80625;SDS011;69982;51.758;5.784;2023-06-01T12:04:18;8.90;;;3.20;;
80625;SDS011;69982;51.758;5.784;2023-06-01T12:06:48;8.90;;;3.00;;
80625;SDS011;69982;51.758;5.784;2023-06-01T12:09:17;9.20;;;3.00;;
80625;SDS011;69982;51.758;5.784;2023-06-01T12:11:47;9.30;;;3.40;;
80625;SDS011;69982;51.758;5.784;2023-06-01T12:14:15;6.20;;;2.80;;
80625;SDS011;69982;51.758;5.784;2023-06-01T12:19:30;8.60;;;2.80;;
80625;SDS011;69982;51.758;5.784;2023-06-01T12:21:59;6.30;;;2.60;;
80625;SDS011;69982;51.758;5.784;2023-06-01T12:24:28;9.90;;;3.30;;
80625;SDS011;69982;51.758;5.784;2023-06-01T12:26:57;8.50;;;3.10;;
80625;SDS011;69982;51.758;5.784;2023-06-01T12:29:39;9.50;;;3.50;;
80625;SDS011;69982;51.758;5.784;2023-06-01T12:32:12;8.40;;;2.70;;
80625;SDS011;69982;51.758;5.784;2023-06-01T12:34:42;6.60;;;2.90;;
80625;SDS011;69982;51.758;5.784;2023-06-01T12:37:18;11.60;;;3.10;;
80625;SDS011;69982;51.758;5.784;2023-06-01T12:39:53;7.10;;;2.70;;
80625;SDS011;69982;51.758;5.784;2023-06-01T12:42:33;8.00;;;3.20;;
80625;SDS011;69982;51.758;5.784;2023-06-01T12:45:07;7.90;;;3.00;;
80625;SDS011;69982;51.758;5.784;2023-06-01T12:47:39;8.30;;;2.70;;
80625;SDS011;69982;51.758;5.784;2023-06-01T12:50:10;8.70;;;3.40;;
80625;SDS011;69982;51.758;5.784;2023-06-01T12:52:40;8.70;;;3.40;;
80625;SDS011;69982;51.758;5.784;2023-06-01T12:55:09;7.00;;;3.20;;
80625;SDS011;69982;51.758;5.784;2023-06-01T12:57:37;10.60;;;3.70;;
80625;SDS011;69982;51.758;5.784;2023-06-01T13:00:06;11.20;;;3.50;;
80625;SDS011;69982;51.758;5.784;2023-06-01T13:02:34;6.60;;;3.20;;
80625;SDS011;69982;51.758;5.784;2023-06-01T13:05:02;8.70;;;3.50;;
80625;SDS011;69982;51.758;5.784;2023-06-01T13:07:33;10.90;;;3.60;;
80625;SDS011;69982;51.758;5.784;2023-06-01T13:10:01;9.90;;;3.80;;
80625;SDS011;69982;51.758;5.784;2023-06-01T13:12:29;8.80;;;4.30;;
80625;SDS011;69982;51.758;5.784;2023-06-01T13:14:57;10.20;;;3.70;;
80625;SDS011;69982;51.758;5.784;2023-06-01T13:17:25;8.90;;;3.40;;
80625;SDS011;69982;51.758;5.784;2023-06-01T13:19:54;10.20;;;4.10;;
80625;SDS011;69982;51.758;5.784;2023-06-01T13:22:22;10.50;;;4.50;;
80625;SDS011;69982;51.758;5.784;2023-06-01T13:24:50;9.80;;;4.10;;
80625;SDS011;69982;51.758;5.784;2023-06-01T13:27:22;9.80;;;4.10;;
80625;SDS011;69982;51.758;5.784;2023-06-01T13:29:50;7.70;;;3.60;;
80625;SDS011;69982;51.758;5.784;2023-06-01T13:32:18;13.50;;;3.60;;
80625;SDS011;69982;51.758;5.784;2023-06-01T13:34:46;9.20;;;3.00;;
80625;SDS011;69982;51.758;5.784;2023-06-01T13:37:15;8.10;;;3.70;;
80625;SDS011;69982;51.758;5.784;2023-06-01T13:39:43;10.50;;;3.40;;
80625;SDS011;69982;51.758;5.784;2023-06-01T13:42:11;7.20;;;3.20;;
80625;SDS011;69982;51.758;5.784;2023-06-01T13:44:39;10.00;;;3.10;;
80625;SDS011;69982;51.758;5.784;2023-06-01T13:47:07;9.20;;;2.50;;
80625;SDS011;69982;51.758;5.784;2023-06-01T13:49:35;9.60;;;2.90;;
80625;SDS011;69982;51.758;5.784;2023-06-01T13:52:03;8.90;;;2.80;;
80625;SDS011;69982;51.758;5.784;2023-06-01T13:54:31;9.00;;;3.20;;
80625;SDS011;69982;51.758;5.784;2023-06-01T13:56:59;9.10;;;2.80;;
80625;SDS011;69982;51.758;5.784;2023-06-01T13:59:30;7.20;;;3.10;;
80625;SDS011;69982;51.758;5.784;2023-06-01T14:02:01;9.40;;;3.00;;
80625;SDS011;69982;51.758;5.784;2023-06-01T14:04:30;7.60;;;3.20;;
80625;SDS011;69982;51.758;5.784;2023-06-01T14:06:58;10.50;;;3.20;;
80625;SDS011;69982;51.758;5.784;2023-06-01T14:09:27;7.90;;;3.30;;
80625;SDS011;69982;51.758;5.784;2023-06-01T14:11:55;12.20;;;3.40;;
80625;SDS011;69982;51.758;5.784;2023-06-01T14:14:23;8.50;;;2.90;;
80625;SDS011;69982;51.758;5.784;2023-06-01T14:16:52;5.90;;;3.10;;
80625;SDS011;69982;51.758;5.784;2023-06-01T14:19:19;8.10;;;3.60;;
80625;SDS011;69982;51.758;5.784;2023-06-01T14:21:47;8.60;;;3.50;;
80625;SDS011;69982;51.758;5.784;2023-06-01T14:24:15;7.70;;;3.10;;
80625;SDS011;69982;51.758;5.784;2023-06-01T14:26:43;7.80;;;2.90;;
80625;SDS011;69982;51.758;5.784;2023-06-01T14:29:11;7.50;;;3.00;;
80625;SDS011;69982;51.758;5.784;2023-06-01T14:31:38;7.80;;;3.20;;
80625;SDS011;69982;51.758;5.784;2023-06-01T14:34:06;7.70;;;3.00;;
80625;SDS011;69982;51.758;5.784;2023-06-01T14:36:34;6.10;;;2.80;;
80625;SDS011;69982;51.758;5.784;2023-06-01T14:39:12;5.70;;;2.80;;
80625;SDS011;69982;51.758;5.784;2023-06-01T14:41:39;11.00;;;3.10;;
80625;SDS011;69982;51.758;5.784;2023-06-01T14:44:09;7.40;;;2.60;;
80625;SDS011;69982;51.758;5.784;2023-06-01T14:46:36;8.60;;;2.50;;
80625;SDS011;69982;51.758;5.784;2023-06-01T14:49:04;4.00;;;2.00;;
80625;SDS011;69982;51.758;5.784;2023-06-01T14:51:32;6.30;;;2.50;;
80625;SDS011;69982;51.758;5.784;2023-06-01T14:54:00;7.20;;;2.80;;
80625;SDS011;69982;51.758;5.784;2023-06-01T14:56:28;5.80;;;2.50;;
80625;SDS011;69982;51.758;5.784;2023-06-01T14:58:56;7.90;;;2.30;;
80625;SDS011;69982;51.758;5.784;2023-06-01T15:01:24;7.60;;;2.70;;
80625;SDS011;69982;51.758;5.784;2023-06-01T15:03:52;6.90;;;2.60;;
80625;SDS011;69982;51.758;5.784;2023-06-01T15:06:20;6.70;;;2.50;;
80625;SDS011;69982;51.758;5.784;2023-06-01T15:08:48;10.00;;;2.80;;
80625;SDS011;69982;51.758;5.784;2023-06-01T15:11:16;5.70;;;2.50;;
80625;SDS011;69982;51.758;5.784;2023-06-01T15:13:44;5.50;;;2.10;;
80625;SDS011;69982;51.758;5.784;2023-06-01T15:16:11;7.10;;;2.00;;
80625;SDS011;69982;51.758;5.784;2023-06-01T15:18:40;7.70;;;2.80;;
80625;SDS011;69982;51.758;5.784;2023-06-01T15:21:07;7.10;;;2.60;;
80625;SDS011;69982;51.758;5.784;2023-06-01T15:23:35;7.60;;;2.70;;
80625;SDS011;69982;51.758;5.784;2023-06-01T15:26:03;7.30;;;2.70;;
80625;SDS011;69982;51.758;5.784;2023-06-01T15:28:31;8.00;;;2.30;;
80625;SDS011;69982;51.758;5.784;2023-06-01T15:30:59;8.40;;;2.80;;
80625;SDS011;69982;51.758;5.784;2023-06-01T15:33:27;11.50;;;2.60;;
80625;SDS011;69982;51.758;5.784;2023-06-01T15:35:55;8.20;;;2.90;;
80625;SDS011;69982;51.758;5.784;2023-06-01T15:38:24;6.10;;;2.30;;
80625;SDS011;69982;51.758;5.784;2023-06-01T15:40:52;9.00;;;2.70;;
80625;SDS011;69982;51.758;5.784;2023-06-01T15:43:20;7.80;;;2.30;;
80625;SDS011;69982;51.758;5.784;2023-06-01T15:45:48;6.70;;;2.20;;
80625;SDS011;69982;51.758;5.784;2023-06-01T15:48:15;8.30;;;1.90;;
80625;SDS011;69982;51.758;5.784;2023-06-01T15:50:43;7.80;;;2.40;;
80625;SDS011;69982;51.758;5.784;2023-06-01T15:53:11;7.90;;;2.40;;
80625;SDS011;69982;51.758;5.784;2023-06-01T15:55:39;7.30;;;2.30;;
80625;SDS011;69982;51.758;5.784;2023-06-01T15:58:07;8.40;;;2.70;;